createdAt,value
2018-04-20T00:02:03.619Z,9.10
2018-04-20T00:04:31.897Z,8.43
2018-04-20T00:07:00.165Z,9.33
2018-04-20T00:09:28.435Z,9.13
2018-04-20T00:11:55.946Z,8.80
2018-04-20T00:14:23.437Z,8.80
2018-04-20T00:16:50.945Z,8.93
2018-04-20T00:19:18.454Z,9.07
2018-04-20T00:21:45.953Z,9.27
2018-04-20T00:24:13.457Z,9.93
2018-04-20T00:26:40.954Z,8.73
2018-04-20T00:29:09.237Z,9.80
2018-04-20T00:31:37.510Z,9.67
2018-04-20T00:34:05.766Z,9.93
2018-04-20T00:36:33.261Z,10.37
2018-04-20T00:39:00.787Z,9.63
2018-04-20T00:41:28.289Z,9.73
2018-04-20T00:43:55.790Z,9.93
2018-04-20T00:46:23.286Z,9.13
2018-04-20T00:48:51.557Z,10.60
2018-04-20T00:51:19.830Z,9.70
2018-04-20T00:54:00.213Z,9.70
2018-04-20T00:56:27.754Z,10.50
2018-04-20T00:58:56.022Z,9.17
2018-04-20T01:01:24.306Z,10.67
2018-04-20T01:03:52.615Z,10.00
2018-04-20T01:06:20.116Z,9.50
2018-04-20T01:08:47.630Z,10.80
2018-04-20T01:11:15.148Z,9.70
2018-04-20T01:13:43.425Z,10.77
2018-04-20T01:16:11.713Z,10.57
2018-04-20T01:18:39.974Z,9.93
2018-04-20T01:21:07.474Z,9.20
2018-04-20T01:23:34.986Z,11.20
2018-04-20T01:26:02.492Z,10.50
2018-04-20T01:28:29.986Z,10.73
2018-04-20T01:30:57.480Z,9.70
2018-04-20T01:33:25.746Z,9.80
2018-04-20T01:35:54.025Z,10.03
2018-04-20T01:38:22.319Z,10.20
2018-04-20T01:40:49.821Z,9.47
2018-04-20T01:43:17.333Z,10.23
2018-04-20T01:45:45.598Z,10.27
2018-04-20T01:48:13.869Z,9.57
2018-04-20T01:50:42.170Z,10.77
2018-04-20T01:53:09.702Z,9.70
2018-04-20T01:55:37.249Z,9.20
2018-04-20T01:58:04.726Z,9.23
2018-04-20T02:00:32.997Z,10.53
2018-04-20T02:03:01.278Z,10.80
2018-04-20T02:05:28.805Z,11.57
2018-04-20T02:07:56.322Z,10.40
2018-04-20T02:10:23.842Z,10.37
2018-04-20T02:12:52.862Z,10.90
2018-04-20T02:15:21.126Z,10.50
2018-04-20T02:17:49.397Z,10.73
2018-04-20T02:20:17.690Z,11.30
2018-04-20T02:22:45.957Z,10.87
2018-04-20T02:25:14.256Z,10.07
2018-04-20T02:27:41.757Z,9.97
2018-04-20T02:30:09.271Z,9.93
2018-04-20T02:32:36.785Z,10.87
2018-04-20T02:35:04.381Z,11.10
2018-04-20T02:37:31.897Z,10.50
2018-04-20T02:39:59.415Z,10.73
2018-04-20T02:42:26.913Z,10.30
2018-04-20T02:44:54.419Z,9.90
2018-04-20T02:47:21.932Z,10.43
2018-04-20T02:49:49.454Z,11.10
2018-04-20T02:52:17.015Z,11.33
2018-04-20T02:54:44.519Z,12.17
2018-04-20T02:57:12.020Z,11.80
2018-04-20T02:59:39.529Z,11.03
2018-04-20T03:02:07.021Z,11.13
2018-04-20T03:04:35.289Z,10.90
2018-04-20T03:07:03.565Z,11.50
2018-04-20T03:09:31.841Z,10.90
2018-04-20T03:12:00.134Z,10.20
2018-04-20T03:14:27.644Z,11.57
2018-04-20T03:16:55.174Z,10.63
2018-04-20T03:19:22.666Z,10.87
2018-04-20T03:21:50.162Z,9.50
2018-04-20T03:24:18.431Z,10.87
2018-04-20T03:26:46.697Z,9.80
2018-04-20T03:29:14.209Z,10.10
2018-04-20T03:31:41.722Z,10.00
2018-04-20T03:34:09.997Z,9.60
2018-04-20T03:36:38.262Z,9.60
2018-04-20T03:39:05.781Z,9.80
2018-04-20T03:41:33.305Z,9.97
2018-04-20T03:44:01.571Z,9.87
2018-04-20T03:46:29.854Z,9.87
2018-04-20T03:48:58.139Z,10.60
2018-04-20T03:51:25.658Z,11.10
2018-04-20T03:53:53.173Z,10.70
2018-04-20T03:56:20.731Z,10.90
2018-04-20T03:58:48.970Z,9.90
2018-04-20T04:01:17.253Z,10.73
2018-04-20T04:03:45.526Z,9.97
2018-04-20T04:06:13.800Z,10.07
2018-04-20T04:08:42.069Z,10.10
2018-04-20T04:11:10.357Z,10.07
2018-04-20T04:13:38.641Z,10.10
2018-04-20T04:16:06.918Z,12.73
2018-04-20T04:18:47.026Z,11.20
2018-04-20T04:21:26.557Z,12.70
2018-04-20T04:24:06.075Z,10.00
2018-04-20T04:26:45.609Z,11.47
2018-04-20T04:29:13.129Z,12.73
2018-04-20T04:31:40.637Z,10.80
2018-04-20T04:34:08.157Z,10.40
2018-04-20T04:36:36.423Z,9.90
2018-04-20T04:39:03.941Z,11.63
2018-04-20T04:41:31.465Z,10.80
2018-04-20T04:43:59.737Z,10.97
2018-04-20T04:46:28.018Z,10.80
2018-04-20T04:48:55.550Z,10.47
2018-04-20T04:51:23.045Z,10.77
2018-04-20T04:53:50.557Z,11.00
2018-04-20T04:56:18.076Z,10.10
2018-04-20T04:58:45.582Z,11.27
2018-04-20T05:01:13.093Z,10.80
2018-04-20T05:03:40.621Z,11.63
2018-04-20T05:06:08.901Z,12.47
2018-04-20T05:08:37.206Z,11.60
2018-04-20T05:11:04.744Z,12.70
2018-04-20T05:13:33.087Z,12.43
2018-04-20T05:16:00.589Z,12.60
2018-04-20T05:18:28.094Z,13.73
2018-04-20T05:20:55.618Z,15.50
2018-04-20T05:23:23.126Z,14.97
2018-04-20T05:25:50.626Z,14.07
2018-04-20T05:28:18.129Z,13.63
2018-04-20T05:30:45.643Z,13.17
2018-04-20T05:33:13.163Z,14.10
2018-04-20T05:35:40.673Z,12.47
2018-04-20T05:38:08.189Z,11.87
2018-04-20T05:40:36.552Z,12.87
2018-04-20T05:43:04.037Z,12.83
2018-04-20T05:45:32.305Z,13.03
2018-04-20T05:48:00.603Z,12.70
2018-04-20T05:50:28.111Z,11.50
2018-04-20T05:52:55.631Z,12.67
2018-04-20T05:55:23.161Z,12.27
2018-04-20T05:57:51.431Z,13.77
2018-04-20T06:00:19.757Z,13.20
2018-04-20T06:02:47.262Z,12.77
2018-04-20T06:05:15.741Z,13.23
2018-04-20T06:07:43.258Z,13.00
2018-04-20T06:10:10.977Z,13.27
2018-04-20T06:12:45.770Z,14.30
2018-04-20T06:15:13.290Z,13.33
2018-04-20T06:17:40.809Z,14.67
2018-04-20T06:20:08.319Z,14.93
2018-04-20T06:22:35.822Z,14.83
2018-04-20T06:25:03.389Z,12.80
2018-04-20T06:27:30.857Z,12.80
2018-04-20T06:29:59.174Z,12.70
2018-04-20T06:32:26.683Z,14.03
2018-04-20T06:34:54.288Z,13.60
2018-04-20T06:37:21.785Z,13.30
2018-04-20T06:39:49.291Z,13.10
2018-04-20T06:42:16.816Z,15.70
2018-04-20T06:44:44.310Z,13.97
2018-04-20T06:47:11.825Z,13.97
2018-04-20T06:49:40.849Z,14.13
2018-04-20T06:52:09.122Z,13.77
2018-04-20T06:54:37.406Z,13.70
2018-04-20T06:57:04.913Z,13.33
2018-04-20T06:59:32.438Z,13.60
2018-04-20T07:01:59.958Z,13.93
2018-04-20T07:04:27.466Z,14.37
2018-04-20T07:06:54.998Z,13.27
2018-04-20T07:09:23.282Z,13.40
2018-04-20T07:11:50.788Z,13.17
2018-04-20T07:14:18.315Z,13.47
2018-04-20T07:16:45.833Z,13.87
2018-04-20T07:19:14.103Z,13.97
2018-04-20T07:21:42.391Z,13.33
2018-04-20T07:24:10.703Z,13.77
2018-04-20T07:26:38.215Z,14.03
2018-04-20T07:29:06.481Z,14.50
2018-04-20T07:31:33.997Z,13.40
2018-04-20T07:34:01.521Z,14.77
2018-04-20T07:36:29.800Z,13.27
2018-04-20T07:38:58.083Z,13.60
2018-04-20T07:41:26.361Z,14.27
2018-04-20T07:43:53.934Z,13.83
2018-04-20T07:46:21.450Z,13.77
2018-04-20T07:48:48.976Z,13.50
2018-04-20T07:51:16.490Z,14.73
2018-04-20T07:53:44.773Z,14.67
2018-04-20T07:56:13.058Z,14.27
2018-04-20T07:58:40.569Z,14.03
2018-04-20T08:01:08.092Z,14.37
2018-04-20T08:03:35.621Z,15.07
2018-04-20T08:06:03.905Z,14.43
2018-04-20T08:08:32.176Z,14.00
2018-04-20T08:11:00.442Z,14.37
2018-04-20T08:13:28.710Z,16.20
2018-04-20T08:15:56.986Z,12.67
2018-04-20T08:18:25.269Z,15.43
2018-04-20T08:20:53.542Z,14.63
2018-04-20T08:23:21.825Z,15.47
2018-04-20T08:25:50.114Z,28.50
2018-04-20T08:28:18.385Z,26.63
2018-04-20T08:30:46.653Z,14.50
2018-04-20T08:33:14.948Z,14.00
2018-04-20T08:35:42.457Z,14.20
2018-04-20T08:38:09.963Z,13.37
2018-04-20T08:40:38.234Z,14.73
2018-04-20T08:43:06.502Z,15.40
2018-04-20T08:45:34.785Z,13.63
2018-04-20T08:48:03.063Z,13.07
2018-04-20T08:50:31.333Z,13.70
2018-04-20T08:52:59.631Z,12.90
2018-04-20T08:55:27.129Z,12.40
2018-04-20T08:57:54.637Z,13.80
2018-04-20T09:00:22.906Z,13.10
2018-04-20T09:02:51.189Z,10.70
2018-04-20T09:05:19.472Z,10.70
2018-04-20T09:07:47.737Z,11.00
2018-04-20T09:10:16.002Z,12.10
2018-04-20T09:12:43.508Z,13.93
2018-04-20T09:15:11.022Z,11.43
2018-04-20T09:17:39.290Z,11.17
2018-04-20T09:20:07.587Z,11.83
2018-04-20T09:22:35.849Z,12.13
2018-04-20T09:25:04.130Z,10.23
2018-04-20T09:27:32.401Z,22.77
2018-04-20T09:29:59.923Z,23.60
2018-04-20T09:32:27.435Z,21.90
2018-04-20T09:34:54.958Z,10.20
2018-04-20T09:37:22.451Z,8.93
2018-04-20T09:39:50.974Z,8.27
2018-04-20T09:42:18.474Z,7.80
2018-04-20T09:44:46.742Z,7.40
2018-04-20T09:47:14.338Z,8.90
2018-04-20T09:49:41.833Z,8.77
2018-04-20T09:52:09.343Z,8.20
2018-04-20T09:54:37.659Z,9.70
2018-04-20T09:57:05.124Z,8.93
2018-04-20T09:59:32.621Z,7.47
2018-04-20T10:02:00.116Z,8.23
2018-04-20T10:04:30.400Z,8.40
2018-04-20T10:06:57.901Z,7.70
2018-04-20T10:09:25.402Z,6.90
2018-04-20T10:11:52.910Z,7.80
2018-04-20T10:14:20.413Z,6.70
2018-04-20T10:16:47.909Z,6.60
2018-04-20T10:19:16.193Z,7.37
2018-04-20T10:21:46.099Z,7.70
2018-04-20T10:24:14.377Z,6.23
2018-04-20T10:26:42.647Z,6.90
2018-04-20T10:29:10.901Z,6.87
2018-04-20T10:31:39.205Z,7.13
2018-04-20T10:34:07.490Z,6.93
2018-04-20T10:36:35.789Z,5.60
2018-04-20T10:39:03.280Z,6.70
2018-04-20T10:41:30.804Z,6.30
2018-04-20T10:43:58.298Z,5.97
2018-04-20T10:46:25.806Z,6.60
2018-04-20T10:48:53.350Z,5.90
2018-04-20T10:51:21.606Z,7.50
2018-04-20T10:53:49.109Z,6.00
2018-04-20T10:56:16.598Z,5.60
2018-04-20T10:58:44.089Z,5.87
2018-04-20T11:01:11.601Z,6.63
2018-04-20T11:03:39.136Z,5.63
2018-04-20T11:06:07.373Z,4.67
2018-04-20T11:08:34.886Z,4.33
2018-04-20T11:11:02.406Z,3.77
2018-04-20T11:13:30.679Z,4.50
2018-04-20T11:15:58.938Z,3.70
2018-04-20T11:18:27.204Z,4.67
2018-04-20T11:20:54.695Z,5.53
2018-04-20T11:23:22.951Z,6.70
2018-04-20T11:25:52.568Z,5.40
2018-04-20T11:28:20.057Z,6.43
2018-04-20T11:30:47.571Z,6.37
2018-04-20T11:33:15.067Z,5.60
2018-04-20T11:35:42.585Z,5.43
2018-04-20T11:38:10.081Z,5.53
2018-04-20T11:40:38.346Z,5.60
2018-04-20T11:43:06.652Z,5.20
2018-04-20T11:45:34.194Z,4.90
2018-04-20T11:48:01.697Z,4.80
2018-04-20T11:50:29.221Z,5.00
2018-04-20T11:52:56.736Z,4.60
2018-04-20T11:55:24.227Z,4.40
2018-04-20T11:57:52.494Z,6.10
2018-04-20T12:00:20.778Z,5.00
2018-04-20T12:02:48.285Z,6.40
2018-04-20T12:05:15.779Z,5.50
2018-04-20T12:07:44.057Z,5.13
2018-04-20T12:10:12.334Z,5.00
2018-04-20T12:12:40.598Z,5.00
2018-04-20T12:15:08.212Z,4.77
2018-04-20T12:17:35.870Z,4.90
2018-04-20T12:20:03.431Z,4.03
2018-04-20T12:22:30.926Z,4.80
2018-04-20T12:24:58.434Z,4.43
2018-04-20T12:27:25.985Z,3.93
2018-04-20T12:29:53.459Z,4.00
2018-04-20T12:32:20.971Z,4.03
2018-04-20T12:34:48.466Z,4.40
2018-04-20T12:37:15.975Z,3.40
2018-04-20T12:39:43.486Z,2.80
2018-04-20T12:42:10.985Z,3.23
2018-04-20T12:44:38.486Z,2.80
2018-04-20T12:47:06.749Z,3.03
2018-04-20T12:49:35.022Z,3.20
2018-04-20T12:52:02.544Z,2.93
2018-04-20T12:54:30.050Z,2.70
2018-04-20T12:56:58.329Z,2.20
2018-04-20T12:59:26.637Z,2.20
2018-04-20T13:01:54.153Z,2.33
2018-04-20T13:04:22.430Z,2.03
2018-04-20T13:06:49.953Z,2.33
2018-04-20T13:09:17.450Z,2.20
2018-04-20T13:11:44.946Z,2.17
2018-04-20T13:14:12.457Z,2.03
2018-04-20T13:16:39.966Z,2.10
2018-04-20T13:19:07.458Z,2.60
2018-04-20T13:21:34.949Z,2.27
2018-04-20T13:24:03.225Z,2.50
2018-04-20T13:26:31.491Z,2.80
2018-04-20T13:28:59.761Z,2.40
2018-04-20T13:31:27.270Z,2.00
2018-04-20T13:33:54.798Z,1.90
2018-04-20T13:36:23.053Z,1.90
2018-04-20T13:38:50.664Z,2.20
2018-04-20T13:41:18.153Z,2.10
2018-04-20T13:43:45.647Z,2.33
2018-04-20T13:46:13.920Z,2.60
2018-04-20T13:48:42.177Z,2.10
2018-04-20T13:51:09.674Z,2.30
2018-04-20T13:53:37.182Z,2.03
2018-04-20T13:56:04.675Z,2.57
2018-04-20T13:58:32.939Z,2.10
2018-04-20T14:01:00.430Z,2.33
2018-04-20T14:03:27.924Z,2.17
2018-04-20T14:05:55.434Z,2.10
2018-04-20T14:08:23.695Z,2.23
2018-04-20T14:10:51.958Z,2.73
2018-04-20T14:13:19.458Z,2.27
2018-04-20T14:15:46.993Z,2.13
2018-04-20T14:18:15.250Z,2.00
2018-04-20T14:20:42.758Z,2.60
2018-04-20T14:23:10.277Z,2.20
2018-04-20T14:25:37.767Z,2.10
2018-04-20T14:28:05.269Z,2.40
2018-04-20T14:30:32.770Z,1.93
2018-04-20T14:33:01.038Z,2.73
2018-04-20T14:35:29.318Z,2.00
2018-04-20T14:37:57.576Z,1.93
2018-04-20T14:40:25.903Z,2.03
2018-04-20T14:42:53.403Z,2.17
2018-04-20T14:45:20.914Z,2.50
2018-04-20T14:47:48.425Z,2.83
2018-04-20T14:50:15.936Z,1.80
2018-04-20T14:52:43.450Z,2.40
2018-04-20T14:55:11.023Z,3.10
2018-04-20T14:57:39.400Z,2.40
2018-04-20T15:00:06.925Z,2.43
2018-04-20T15:02:34.429Z,2.53
2018-04-20T15:05:02.702Z,2.20
2018-04-20T15:07:30.986Z,2.10
2018-04-20T15:09:58.494Z,2.33
2018-04-20T15:12:26.013Z,2.60
2018-04-20T15:14:53.533Z,2.13
2018-04-20T15:17:22.534Z,2.63
2018-04-20T15:19:51.185Z,1.90
2018-04-20T15:22:18.685Z,2.63
2018-04-20T15:24:46.966Z,2.83
2018-04-20T15:27:14.579Z,2.33
2018-04-20T15:29:42.114Z,1.83
2018-04-20T15:32:09.621Z,2.17
2018-04-20T15:34:37.125Z,1.97
2018-04-20T15:37:04.626Z,2.07
2018-04-20T15:39:32.135Z,2.30
2018-04-20T15:41:59.634Z,2.47
2018-04-20T15:44:27.139Z,2.20
2018-04-20T15:46:55.402Z,2.40
2018-04-20T15:49:23.717Z,2.10
2018-04-20T15:51:51.219Z,2.10
2018-04-20T15:54:18.727Z,2.10
2018-04-20T15:56:46.262Z,2.00
2018-04-20T15:59:14.531Z,1.80
2018-04-20T16:01:42.929Z,2.00
2018-04-20T16:04:11.341Z,2.10
2018-04-20T16:06:38.832Z,2.30
2018-04-20T16:09:06.326Z,2.40
2018-04-20T16:11:33.841Z,2.40
2018-04-20T16:14:01.331Z,2.30
2018-04-20T16:16:29.686Z,1.80
2018-04-20T16:18:57.196Z,2.30
2018-04-20T16:21:24.702Z,2.30
2018-04-20T16:23:52.957Z,2.10
2018-04-20T16:26:20.458Z,2.60
2018-04-20T16:28:48.737Z,2.13
2018-04-20T16:31:16.998Z,2.30
2018-04-20T16:33:44.491Z,2.33
2018-04-20T16:36:11.990Z,2.03
2018-04-20T16:38:39.494Z,2.30
2018-04-20T16:41:07.753Z,2.07
2018-04-20T16:43:36.013Z,2.97
2018-04-20T16:46:03.509Z,2.73
2018-04-20T16:48:31.064Z,2.30
2018-04-20T16:50:59.339Z,2.60
2018-04-20T16:53:27.591Z,2.50
2018-04-20T16:55:55.869Z,2.60
2018-04-20T16:58:23.379Z,3.17
2018-04-20T17:00:50.875Z,2.80
2018-04-20T17:03:18.391Z,2.43
2018-04-20T17:05:45.886Z,2.87
2018-04-20T17:08:13.394Z,2.60
2018-04-20T17:10:40.886Z,3.60
2018-04-20T17:13:08.388Z,2.40
2018-04-20T17:15:36.666Z,2.53
2018-04-20T17:18:04.950Z,9.07
2018-04-20T17:20:33.201Z,4.67
2018-04-20T17:23:00.694Z,5.03
2018-04-20T17:25:28.191Z,5.80
2018-04-20T17:27:55.683Z,4.03
2018-04-20T17:30:23.953Z,4.10
2018-04-20T17:32:51.484Z,3.40
2018-04-20T17:35:18.966Z,3.20
2018-04-20T17:37:46.454Z,2.93
2018-04-20T17:40:14.709Z,2.60
2018-04-20T17:42:42.314Z,2.40
2018-04-20T17:45:09.822Z,17.73
2018-04-20T17:47:37.369Z,3.10
2018-04-20T17:50:04.891Z,2.50
2018-04-20T17:52:32.402Z,2.70
2018-04-20T17:54:59.898Z,3.50
2018-04-20T17:57:27.402Z,54.53
2018-04-20T17:59:54.897Z,10.80
2018-04-20T18:02:23.171Z,4.10
2018-04-20T18:04:51.443Z,3.10
2018-04-20T18:07:19.705Z,7.93
2018-04-20T18:09:47.965Z,7.60
2018-04-20T18:12:15.479Z,5.17
2018-04-20T18:14:42.973Z,2.87
2018-04-20T18:17:10.471Z,2.10
2018-04-20T18:19:37.978Z,2.50
2018-04-20T18:22:05.470Z,2.27
2018-04-20T18:24:33.067Z,2.97
2018-04-20T18:27:00.526Z,2.87
2018-04-20T18:29:28.026Z,2.70
2018-04-20T18:31:55.522Z,2.97
2018-04-20T18:34:23.816Z,2.90
2018-04-20T18:36:51.314Z,2.40
2018-04-20T18:39:18.832Z,2.77
2018-04-20T18:41:46.321Z,2.60
2018-04-20T18:44:13.825Z,2.37
2018-04-20T18:46:41.319Z,2.67
2018-04-20T18:49:08.824Z,2.60
2018-04-20T18:51:36.330Z,2.50
2018-04-20T18:54:03.821Z,2.70
2018-04-20T18:56:31.314Z,2.30
2018-04-20T18:58:58.810Z,2.30
2018-04-20T19:01:26.301Z,3.00
2018-04-20T19:03:53.802Z,8.33
2018-04-20T19:06:22.083Z,6.43
2018-04-20T19:08:50.355Z,4.43
2018-04-20T19:11:18.614Z,3.90
2018-04-20T19:13:46.224Z,3.40
2018-04-20T19:16:13.718Z,3.60
2018-04-20T19:18:42.130Z,7.43
2018-04-20T19:21:10.395Z,4.53
2018-04-20T19:23:37.892Z,4.93
2018-04-20T19:26:05.400Z,3.90
2018-04-20T19:28:34.446Z,3.27
2018-04-20T19:31:01.943Z,3.50
2018-04-20T19:33:29.447Z,3.83
2018-04-20T19:35:56.949Z,3.80
2018-04-20T19:38:24.452Z,3.67
2018-04-20T19:40:52.710Z,3.50
2018-04-20T19:43:20.201Z,3.23
2018-04-20T19:45:47.698Z,2.50
2018-04-20T19:48:15.194Z,2.70
2018-04-20T19:50:43.465Z,2.80
2018-04-20T19:53:11.724Z,2.83
2018-04-20T19:55:40.723Z,3.33
2018-04-20T19:58:09.732Z,3.03
2018-04-20T20:00:37.989Z,3.20
2018-04-20T20:03:05.477Z,3.60
2018-04-20T20:05:33.749Z,3.20
2018-04-20T20:08:02.012Z,3.40
2018-04-20T20:10:29.516Z,4.20
2018-04-20T20:12:57.005Z,3.40
2018-04-20T20:15:24.529Z,3.60
2018-04-20T20:17:52.018Z,4.40
2018-04-20T20:20:19.510Z,3.40
2018-04-20T20:22:47.779Z,4.10
2018-04-20T20:25:16.777Z,4.77
2018-04-20T20:27:45.061Z,3.90
2018-04-20T20:30:13.317Z,4.60
2018-04-20T20:32:42.334Z,3.80
2018-04-20T20:35:10.609Z,4.80
2018-04-20T20:37:38.881Z,4.70
2018-04-20T20:40:07.165Z,4.70
2018-04-20T20:42:35.426Z,4.50
2018-04-20T20:45:02.924Z,5.20
2018-04-20T20:47:30.429Z,5.07
2018-04-20T20:49:57.962Z,5.70
2018-04-20T20:52:25.469Z,4.23
2018-04-20T20:54:53.747Z,5.57
2018-04-20T20:57:22.013Z,7.80
2018-04-20T20:59:50.278Z,4.23
2018-04-20T21:02:19.272Z,4.97
2018-04-20T21:04:46.779Z,4.13
2018-04-20T21:07:14.313Z,4.70
2018-04-20T21:09:42.573Z,4.10
2018-04-20T21:12:10.084Z,4.57
2018-04-20T21:14:37.578Z,4.10
2018-04-20T21:17:05.077Z,4.03
2018-04-20T21:19:32.587Z,4.27
2018-04-20T21:22:00.077Z,4.20
2018-04-20T21:24:28.345Z,4.47
2018-04-20T21:26:56.663Z,5.10
2018-04-20T21:29:24.159Z,5.10
2018-04-20T21:31:51.662Z,4.83
2018-04-20T21:34:19.157Z,5.07
2018-04-20T21:36:46.652Z,5.30
2018-04-20T21:39:14.933Z,13.67
2018-04-20T21:41:43.217Z,8.90
2018-04-20T21:44:11.482Z,5.53
2018-04-20T21:46:39.741Z,5.20
2018-04-20T21:49:08.021Z,5.47
2018-04-20T21:51:35.543Z,4.50
2018-04-20T21:54:03.049Z,4.80
2018-04-20T21:56:31.318Z,4.97
2018-04-20T21:58:58.814Z,4.80
2018-04-20T22:01:26.318Z,4.77
2018-04-20T22:03:53.821Z,5.30
2018-04-20T22:06:22.225Z,4.63
2018-04-20T22:08:49.717Z,5.20
2018-04-20T22:11:17.218Z,5.00
2018-04-20T22:13:45.519Z,4.77
2018-04-20T22:16:13.050Z,4.47
2018-04-20T22:18:41.339Z,4.57
2018-04-20T22:21:08.846Z,19.47
2018-04-20T22:23:36.352Z,4.00
2018-04-20T22:26:03.853Z,4.20
2018-04-20T22:28:31.351Z,4.53
2018-04-20T22:30:59.626Z,3.70
2018-04-20T22:33:27.900Z,4.53
2018-04-20T22:35:56.161Z,3.83
2018-04-20T22:38:23.749Z,4.40
2018-04-20T22:40:52.110Z,4.17
2018-04-20T22:43:19.622Z,4.33
2018-04-20T22:45:47.134Z,5.00
2018-04-20T22:48:15.397Z,4.50
2018-04-20T22:50:42.902Z,4.70
2018-04-20T22:53:10.410Z,4.20
2018-04-20T22:55:37.909Z,5.33
2018-04-20T22:58:05.439Z,4.50
2018-04-20T23:00:33.701Z,4.97
2018-04-20T23:03:01.212Z,4.80
2018-04-20T23:05:28.705Z,4.57
2018-04-20T23:07:56.235Z,5.00
2018-04-20T23:10:23.750Z,4.57
2018-04-20T23:12:51.250Z,4.20
2018-04-20T23:15:18.765Z,4.00
2018-04-20T23:17:46.261Z,4.90
2018-04-20T23:20:13.782Z,4.63
2018-04-20T23:22:42.058Z,4.60
2018-04-20T23:25:10.349Z,4.60
2018-04-20T23:27:38.606Z,3.97
2018-04-20T23:30:06.105Z,4.20
2018-04-20T23:32:33.602Z,4.40
2018-04-20T23:35:01.100Z,4.60
2018-04-20T23:37:29.373Z,4.67
2018-04-20T23:39:57.649Z,4.80
2018-04-20T23:42:25.935Z,4.90
2018-04-20T23:44:54.198Z,4.00
2018-04-20T23:47:22.467Z,4.47
2018-04-20T23:49:49.967Z,4.90
2018-04-20T23:52:17.477Z,4.43
2018-04-20T23:54:44.976Z,5.10
2018-04-20T23:57:12.489Z,4.27
2018-04-20T23:59:39.990Z,5.10
